createdAt,value
2023-04-26T00:00:26.797Z,0.00
2023-04-26T00:01:26.750Z,0.00
2023-04-26T00:02:26.833Z,0.00
2023-04-26T00:03:26.944Z,0.00
2023-04-26T00:04:26.973Z,0.00
2023-04-26T00:05:26.722Z,0.00
2023-04-26T00:06:26.696Z,0.00
2023-04-26T00:07:26.710Z,0.00
2023-04-26T00:08:26.681Z,0.00
2023-04-26T00:09:26.666Z,0.00
2023-04-26T00:10:26.666Z,0.00
2023-04-26T00:11:26.650Z,0.00
2023-04-26T00:12:26.645Z,0.00
2023-04-26T00:13:26.667Z,0.00
2023-04-26T00:14:26.613Z,0.00
2023-04-26T00:15:26.618Z,0.00
2023-04-26T00:16:26.652Z,0.00
2023-04-26T00:17:26.590Z,0.00
2023-04-26T00:18:26.583Z,0.00
2023-04-26T00:19:26.553Z,0.00
2023-04-26T00:20:26.546Z,0.00
2023-04-26T00:21:26.530Z,0.00
2023-04-26T00:22:26.538Z,0.00
2023-04-26T00:23:26.554Z,0.00
2023-04-26T00:24:26.517Z,0.00
2023-04-26T00:25:26.495Z,0.00
2023-04-26T00:26:26.487Z,0.00
2023-04-26T00:27:26.476Z,0.00
2023-04-26T00:28:26.479Z,0.00
2023-04-26T00:29:26.456Z,0.00
2023-04-26T00:30:26.453Z,0.00
2023-04-26T00:31:26.466Z,0.00
2023-04-26T00:32:26.469Z,0.00
2023-04-26T00:33:26.429Z,0.00
2023-04-26T00:34:26.404Z,0.00
2023-04-26T00:35:26.394Z,0.00
2023-04-26T00:36:26.390Z,0.00
2023-04-26T00:37:26.376Z,0.00
2023-04-26T00:38:26.373Z,0.00
2023-04-26T00:39:26.346Z,0.00
2023-04-26T00:40:26.350Z,0.00
2023-04-26T00:41:26.336Z,0.00
2023-04-26T00:42:26.426Z,0.00
2023-04-26T00:43:26.324Z,0.00
2023-04-26T00:44:26.310Z,0.00
2023-04-26T00:45:26.303Z,0.00
2023-04-26T00:46:26.478Z,0.00
2023-04-26T00:47:26.295Z,0.00
2023-04-26T00:48:26.285Z,0.00
2023-04-26T00:49:26.240Z,0.00
2023-04-26T00:50:26.253Z,0.00
2023-04-26T00:51:26.222Z,0.00
2023-04-26T00:52:26.225Z,0.00
2023-04-26T00:53:26.222Z,0.00
2023-04-26T00:54:26.221Z,0.00
2023-04-26T00:55:26.216Z,0.00
2023-04-26T00:56:26.177Z,0.00
2023-04-26T00:57:26.168Z,0.00
2023-04-26T00:58:26.170Z,0.00
2023-04-26T00:59:26.149Z,0.00
2023-04-26T01:00:27.101Z,0.00
2023-04-26T01:01:26.158Z,0.00
2023-04-26T01:02:26.249Z,0.00
2023-04-26T01:03:26.288Z,0.00
2023-04-26T01:04:26.200Z,0.00
2023-04-26T01:05:26.117Z,0.00
2023-04-26T01:06:26.070Z,0.00
2023-04-26T01:07:26.065Z,0.00
2023-04-26T01:08:26.063Z,0.00
2023-04-26T01:09:26.037Z,0.00
2023-04-26T01:10:26.030Z,0.00
2023-04-26T01:11:26.019Z,0.00
2023-04-26T01:12:26.005Z,0.00
2023-04-26T01:13:25.997Z,0.00
2023-04-26T01:14:25.985Z,0.00
2023-04-26T01:15:25.975Z,0.00
2023-04-26T01:16:26.012Z,0.00
2023-04-26T01:17:25.995Z,0.00
2023-04-26T01:18:25.961Z,0.00
2023-04-26T01:19:25.929Z,0.00
2023-04-26T01:20:25.934Z,0.00
2023-04-26T01:21:25.913Z,0.00
2023-04-26T01:22:25.908Z,0.00
2023-04-26T01:23:25.909Z,0.00
2023-04-26T01:24:25.897Z,0.00
2023-04-26T01:25:25.868Z,0.00
2023-04-26T01:26:25.875Z,0.00
2023-04-26T01:27:25.842Z,0.00
2023-04-26T01:28:25.851Z,0.00
2023-04-26T01:29:25.831Z,0.00
2023-04-26T01:30:25.821Z,0.00
2023-04-26T01:31:25.849Z,0.00
2023-04-26T01:32:25.874Z,0.00
2023-04-26T01:33:25.803Z,0.00
2023-04-26T01:34:25.783Z,0.00
2023-04-26T01:35:25.778Z,0.00
2023-04-26T01:36:25.754Z,0.00
2023-04-26T01:37:25.745Z,0.00
2023-04-26T01:38:25.738Z,0.00
2023-04-26T01:39:25.731Z,0.00
2023-04-26T01:40:25.711Z,0.00
2023-04-26T01:41:25.704Z,0.00
2023-04-26T01:42:25.703Z,0.00
2023-04-26T01:43:25.690Z,0.00
2023-04-26T01:44:25.687Z,0.00
2023-04-26T01:45:25.670Z,0.00
2023-04-26T01:46:25.666Z,0.00
2023-04-26T01:47:25.694Z,0.00
2023-04-26T01:48:25.629Z,0.00
2023-04-26T01:49:25.631Z,0.00
2023-04-26T01:50:25.616Z,0.00
2023-04-26T01:51:25.604Z,0.00
2023-04-26T01:52:25.584Z,0.00
2023-04-26T01:53:25.576Z,0.00
2023-04-26T01:54:25.614Z,0.00
2023-04-26T01:55:25.558Z,0.00
2023-04-26T01:56:25.550Z,0.00
2023-04-26T01:57:25.534Z,0.00
2023-04-26T01:58:25.569Z,0.00
2023-04-26T01:59:25.528Z,0.00
2023-04-26T02:00:25.508Z,0.00
2023-04-26T02:01:25.588Z,0.00
2023-04-26T02:02:25.517Z,0.00
2023-04-26T02:03:25.536Z,0.00
2023-04-26T02:04:25.469Z,0.00
2023-04-26T02:05:25.535Z,0.00
2023-04-26T02:06:25.448Z,0.00
2023-04-26T02:07:25.438Z,0.00
2023-04-26T02:08:25.415Z,0.00
2023-04-26T02:09:25.426Z,0.00
2023-04-26T02:10:25.415Z,0.00
2023-04-26T02:11:25.396Z,0.00
2023-04-26T02:12:25.380Z,0.00
2023-04-26T02:13:25.366Z,0.00
2023-04-26T02:14:25.369Z,0.00
2023-04-26T02:15:25.350Z,0.00
2023-04-26T02:16:25.490Z,0.00
2023-04-26T02:17:25.343Z,0.00
2023-04-26T02:18:25.316Z,0.00
2023-04-26T02:19:25.343Z,0.00
2023-04-26T02:20:25.294Z,0.00
2023-04-26T02:21:25.289Z,0.00
2023-04-26T02:22:25.271Z,0.00
2023-04-26T02:23:25.274Z,0.00
2023-04-26T02:24:25.284Z,0.00
2023-04-26T02:25:25.261Z,0.00
2023-04-26T02:26:25.231Z,0.00
2023-04-26T02:27:25.227Z,0.00
2023-04-26T02:28:25.216Z,0.00
2023-04-26T02:29:42.068Z,0.00
2023-04-26T02:30:26.195Z,0.00
2023-04-26T02:31:25.328Z,0.00
2023-04-26T02:32:25.188Z,0.00
2023-04-26T02:33:25.178Z,0.00
2023-04-26T02:34:25.154Z,0.00
2023-04-26T02:35:25.149Z,0.00
2023-04-26T02:36:25.175Z,0.00
2023-04-26T02:37:25.137Z,0.00
2023-04-26T02:38:25.118Z,0.00
2023-04-26T02:39:25.109Z,0.00
2023-04-26T02:40:25.085Z,0.00
2023-04-26T02:41:25.077Z,0.00
2023-04-26T02:42:25.077Z,0.00
2023-04-26T02:43:25.064Z,0.00
2023-04-26T02:44:25.066Z,0.00
2023-04-26T02:45:25.044Z,0.00
2023-04-26T02:46:25.053Z,0.00
2023-04-26T02:47:25.061Z,0.00
2023-04-26T02:48:25.001Z,0.00
2023-04-26T02:49:25.010Z,0.00
2023-04-26T02:50:24.974Z,0.00
2023-04-26T02:51:24.975Z,0.00
2023-04-26T02:52:24.958Z,0.00
2023-04-26T02:53:24.961Z,0.00
2023-04-26T02:54:24.954Z,0.00
2023-04-26T02:55:24.944Z,0.00
2023-04-26T02:56:24.922Z,0.00
2023-04-26T02:57:24.907Z,0.00
2023-04-26T02:58:24.900Z,0.00
2023-04-26T02:59:24.901Z,0.00
2023-04-26T03:00:24.880Z,0.00
2023-04-26T03:01:24.880Z,0.00
2023-04-26T03:02:24.953Z,0.00
2023-04-26T03:03:25.028Z,0.00
2023-04-26T03:04:24.895Z,0.00
2023-04-26T03:05:24.828Z,0.00
2023-04-26T03:06:24.819Z,0.00
2023-04-26T03:07:24.813Z,0.00
2023-04-26T03:08:24.787Z,0.00
2023-04-26T03:09:24.799Z,0.00
2023-04-26T03:10:24.775Z,0.00
2023-04-26T03:11:24.771Z,0.00
2023-04-26T03:12:24.748Z,0.00
2023-04-26T03:13:24.752Z,0.00
2023-04-26T03:14:24.744Z,0.00
2023-04-26T03:15:24.720Z,0.00
2023-04-26T03:16:24.717Z,0.00
2023-04-26T03:17:24.728Z,0.00
2023-04-26T03:18:24.687Z,0.00
2023-04-26T03:19:24.693Z,0.00
2023-04-26T03:20:24.665Z,0.00
2023-04-26T03:21:24.673Z,0.00
2023-04-26T03:22:24.646Z,0.00
2023-04-26T03:23:24.641Z,0.00
2023-04-26T03:24:24.624Z,0.00
2023-04-26T03:25:24.626Z,0.00
2023-04-26T03:26:24.607Z,0.00
2023-04-26T03:27:24.601Z,0.00
2023-04-26T03:28:24.595Z,0.00
2023-04-26T03:29:24.594Z,0.00
2023-04-26T03:30:24.580Z,0.00
2023-04-26T03:31:24.590Z,0.00
2023-04-26T03:32:24.548Z,0.00
2023-04-26T03:33:24.539Z,0.00
2023-04-26T03:34:24.522Z,0.00
2023-04-26T03:35:24.532Z,0.00
2023-04-26T03:36:24.506Z,0.00
2023-04-26T03:37:24.503Z,0.00
2023-04-26T03:38:24.482Z,0.00
2023-04-26T03:39:24.482Z,0.00
2023-04-26T03:40:24.477Z,0.00
2023-04-26T03:41:24.460Z,0.00
2023-04-26T03:42:24.447Z,0.00
2023-04-26T03:43:24.437Z,0.00
2023-04-26T03:44:24.432Z,0.00
2023-04-26T03:45:24.434Z,0.00
2023-04-26T03:46:24.515Z,0.00
2023-04-26T03:47:24.405Z,0.00
2023-04-26T03:48:24.382Z,0.00
2023-04-26T03:49:24.376Z,0.00
2023-04-26T03:50:24.371Z,0.00
2023-04-26T03:51:24.356Z,0.00
2023-04-26T03:52:24.340Z,0.00
2023-04-26T03:53:24.326Z,0.00
2023-04-26T03:54:24.318Z,0.00
2023-04-26T03:55:24.346Z,0.00
2023-04-26T03:56:24.295Z,0.00
2023-04-26T03:57:24.292Z,0.00
2023-04-26T03:58:24.275Z,0.00
2023-04-26T03:59:24.262Z,0.00
2023-04-26T04:00:24.261Z,0.00
2023-04-26T04:01:24.201Z,1.00
2023-04-26T04:02:24.283Z,1.00
2023-04-26T04:03:24.292Z,1.00
2023-04-26T04:04:24.424Z,1.00
2023-04-26T04:05:24.234Z,0.00
2023-04-26T04:06:24.183Z,0.00
2023-04-26T04:07:24.184Z,0.00
2023-04-26T04:08:24.160Z,0.00
2023-04-26T04:09:24.165Z,0.00
2023-04-26T04:10:24.162Z,0.00
2023-04-26T04:11:24.159Z,0.00
2023-04-26T04:12:24.083Z,2.00
2023-04-26T04:13:24.076Z,1.00
2023-04-26T04:14:24.102Z,0.00
2023-04-26T04:15:24.106Z,0.00
2023-04-26T04:16:24.135Z,1.00
2023-04-26T04:17:24.124Z,1.00
2023-04-26T04:18:24.006Z,1.00
2023-04-26T04:19:24.050Z,0.00
2023-04-26T04:20:24.052Z,0.00
2023-04-26T04:21:24.030Z,0.00
2023-04-26T04:22:24.045Z,0.00
2023-04-26T04:23:23.978Z,2.00
2023-04-26T04:24:23.953Z,2.00
2023-04-26T04:25:23.955Z,1.00
2023-04-26T04:26:23.980Z,0.00
2023-04-26T04:27:23.930Z,4.00
2023-04-26T04:28:23.911Z,4.00
2023-04-26T04:29:23.896Z,4.00
2023-04-26T04:30:23.901Z,3.00
2023-04-26T04:31:23.917Z,3.00
2023-04-26T04:32:23.927Z,3.00
2023-04-26T04:33:23.870Z,3.00
2023-04-26T04:34:23.833Z,5.00
2023-04-26T04:35:23.851Z,4.00
2023-04-26T04:36:23.819Z,2.00
2023-04-26T04:37:23.811Z,4.00
2023-04-26T04:38:23.803Z,9.00
2023-04-26T04:39:23.803Z,8.00
2023-04-26T04:40:23.790Z,5.00
2023-04-26T04:41:23.869Z,5.00
2023-04-26T04:42:23.758Z,5.00
2023-04-26T04:43:23.760Z,2.00
2023-04-26T04:44:23.746Z,1.00
2023-04-26T04:45:23.756Z,2.00
2023-04-26T04:46:23.752Z,2.00
2023-04-26T04:47:23.752Z,4.00
2023-04-26T04:48:23.705Z,2.00
2023-04-26T04:49:23.688Z,2.00
2023-04-26T04:50:23.688Z,4.00
2023-04-26T04:51:23.673Z,4.00
2023-04-26T04:52:23.651Z,3.00
2023-04-26T04:53:23.650Z,3.00
2023-04-26T04:54:23.645Z,3.00
2023-04-26T04:55:23.638Z,4.00
2023-04-26T04:56:23.632Z,2.00
2023-04-26T04:57:23.604Z,2.00
2023-04-26T04:58:23.614Z,4.00
2023-04-26T04:59:23.581Z,4.00
2023-04-26T05:00:23.600Z,4.00
2023-04-26T05:01:23.583Z,6.00
2023-04-26T05:02:23.780Z,6.00
2023-04-26T05:03:23.678Z,7.00
2023-04-26T05:04:23.849Z,5.00
2023-04-26T05:05:23.544Z,7.00
2023-04-26T05:06:23.531Z,6.00
2023-04-26T05:07:24.600Z,6.00
2023-04-26T05:08:23.504Z,6.00
2023-04-26T05:09:23.492Z,7.00
2023-04-26T05:10:23.471Z,8.00
2023-04-26T05:11:23.472Z,5.00
2023-04-26T05:12:23.449Z,6.00
2023-04-26T05:13:23.444Z,6.00
2023-04-26T05:14:23.424Z,7.00
2023-04-26T05:15:23.437Z,6.00
2023-04-26T05:16:23.439Z,6.00
2023-04-26T05:17:23.426Z,8.00
2023-04-26T05:18:23.409Z,7.00
2023-04-26T05:19:23.384Z,8.00
2023-04-26T05:20:23.366Z,8.00
2023-04-26T05:21:23.371Z,8.00
2023-04-26T05:22:23.343Z,8.00
2023-04-26T05:23:23.352Z,7.00
2023-04-26T05:24:23.334Z,7.00
2023-04-26T05:25:23.338Z,8.00
2023-04-26T05:26:23.350Z,8.00
2023-04-26T05:27:23.309Z,10.00
2023-04-26T05:28:23.363Z,9.00
2023-04-26T05:29:23.277Z,9.00
2023-04-26T05:30:23.261Z,9.00
2023-04-26T05:31:23.304Z,10.00
2023-04-26T05:32:23.247Z,11.00
2023-04-26T05:33:23.236Z,9.00
2023-04-26T05:34:23.221Z,12.00
2023-04-26T05:35:23.221Z,10.00
2023-04-26T05:36:23.216Z,9.00
2023-04-26T05:37:23.203Z,11.00
2023-04-26T05:38:23.188Z,12.00
2023-04-26T05:39:23.189Z,11.00
2023-04-26T05:40:23.157Z,14.00
2023-04-26T05:41:23.162Z,11.00
2023-04-26T05:42:23.144Z,12.00
2023-04-26T05:43:23.134Z,15.00
2023-04-26T05:44:23.114Z,13.00
2023-04-26T05:45:23.209Z,10.00
2023-04-26T05:46:23.207Z,10.00
2023-04-26T05:47:23.094Z,10.00
2023-04-26T05:48:23.082Z,10.00
2023-04-26T05:49:23.072Z,15.00
2023-04-26T05:50:23.054Z,17.00
2023-04-26T05:51:23.066Z,17.00
2023-04-26T05:52:23.032Z,15.00
2023-04-26T05:53:23.024Z,13.00
2023-04-26T05:54:23.015Z,25.00
2023-04-26T05:55:23.022Z,24.00
2023-04-26T05:56:23.013Z,8.00
2023-04-26T05:57:23.028Z,31.00
2023-04-26T05:58:22.970Z,10.00
2023-04-26T05:59:22.953Z,21.00
2023-04-26T06:00:22.951Z,17.00
2023-04-26T06:01:22.958Z,17.00
2023-04-26T06:02:23.007Z,47.00
2023-04-26T06:03:23.022Z,12.00
2023-04-26T06:04:23.065Z,6.00
2023-04-26T06:05:23.148Z,10.00
2023-04-26T06:06:22.906Z,55.00
2023-04-26T06:07:22.880Z,9.00
2023-04-26T06:08:22.878Z,12.00
2023-04-26T06:09:22.852Z,68.00
2023-04-26T06:10:22.855Z,23.00
2023-04-26T06:11:22.850Z,17.00
2023-04-26T06:12:22.842Z,23.00
2023-04-26T06:13:22.813Z,13.00
2023-04-26T06:14:29.948Z,8.00
2023-04-26T06:15:23.788Z,47.00
2023-04-26T06:16:22.820Z,41.00
2023-04-26T06:17:23.153Z,9.00
2023-04-26T06:18:22.765Z,9.00
2023-04-26T06:19:22.748Z,12.00
2023-04-26T06:20:22.742Z,56.00
2023-04-26T06:21:22.745Z,8.00
2023-04-26T06:22:22.726Z,20.00
2023-04-26T06:23:22.724Z,11.00
2023-04-26T06:24:22.700Z,12.00
2023-04-26T06:25:22.686Z,19.00
2023-04-26T06:26:22.693Z,28.00
2023-04-26T06:27:22.666Z,8.00
2023-04-26T06:28:22.671Z,16.00
2023-04-26T06:29:22.658Z,22.00
2023-04-26T06:30:22.640Z,21.00
2023-04-26T06:31:22.749Z,12.00
2023-04-26T06:32:22.691Z,12.00
2023-04-26T06:33:22.618Z,11.00
2023-04-26T06:34:22.601Z,14.00
2023-04-26T06:35:22.588Z,21.00
2023-04-26T06:36:22.593Z,16.00
2023-04-26T06:37:22.566Z,8.00
2023-04-26T06:38:22.623Z,11.00
2023-04-26T06:39:22.545Z,23.00
2023-04-26T06:40:22.560Z,16.00
2023-04-26T06:41:22.533Z,7.00
2023-04-26T06:42:22.524Z,11.00
2023-04-26T06:43:22.515Z,23.00
2023-04-26T06:44:22.500Z,18.00
2023-04-26T06:45:22.499Z,10.00
2023-04-26T06:46:22.561Z,14.00
2023-04-26T06:47:22.480Z,13.00
2023-04-26T06:48:22.449Z,19.00
2023-04-26T06:49:22.445Z,18.00
2023-04-26T06:50:22.698Z,8.00
2023-04-26T06:51:22.455Z,6.00
2023-04-26T06:52:22.426Z,9.00
2023-04-26T06:53:23.245Z,16.00
2023-04-26T06:54:22.390Z,25.00
2023-04-26T06:55:22.395Z,19.00
2023-04-26T06:56:22.386Z,25.00
2023-04-26T06:57:22.360Z,17.00
2023-04-26T06:58:22.365Z,8.00
2023-04-26T06:59:22.335Z,8.00
2023-04-26T07:00:22.337Z,8.00
2023-04-26T07:01:22.357Z,25.00
2023-04-26T07:02:22.507Z,17.00
2023-04-26T07:03:22.427Z,11.00
2023-04-26T07:04:22.527Z,14.00
2023-04-26T07:05:22.308Z,41.00
2023-04-26T07:06:22.463Z,98.00
2023-04-26T07:07:22.256Z,54.00
2023-04-26T07:08:22.250Z,26.00
2023-04-26T07:09:22.235Z,14.00
2023-04-26T07:10:22.225Z,6.00
2023-04-26T07:11:24.621Z,11.00
2023-04-26T07:12:22.206Z,22.00
2023-04-26T07:13:22.200Z,30.00
2023-04-26T07:14:22.199Z,75.00
2023-04-26T07:15:22.170Z,29.00
2023-04-26T07:16:22.222Z,66.00
2023-04-26T07:17:22.152Z,98.00
2023-04-26T07:18:22.167Z,19.00
2023-04-26T07:19:22.127Z,10.00
2023-04-26T07:20:22.125Z,12.00
2023-04-26T07:21:22.119Z,30.00
2023-04-26T07:22:22.145Z,23.00
2023-04-26T07:23:22.087Z,19.00
2023-04-26T07:24:22.084Z,17.00
2023-04-26T07:25:22.059Z,53.00
2023-04-26T07:26:22.079Z,18.00
2023-04-26T07:27:22.049Z,13.00
2023-04-26T07:28:22.057Z,18.00
2023-04-26T07:29:22.029Z,15.00
2023-04-26T07:30:22.041Z,18.00
2023-04-26T07:31:22.020Z,83.00
2023-04-26T07:32:22.047Z,26.00
2023-04-26T07:33:22.147Z,28.00
2023-04-26T07:34:21.971Z,17.00
2023-04-26T07:35:21.966Z,28.00
2023-04-26T07:36:23.179Z,26.00
2023-04-26T07:37:21.941Z,28.00
2023-04-26T07:38:21.940Z,26.00
2023-04-26T07:39:21.922Z,24.00
2023-04-26T07:40:21.911Z,20.00
2023-04-26T07:41:21.908Z,28.00
2023-04-26T07:42:21.908Z,26.00
2023-04-26T07:43:21.880Z,21.00
2023-04-26T07:44:21.867Z,26.00
2023-04-26T07:45:21.914Z,26.00
2023-04-26T07:46:21.902Z,27.00
2023-04-26T07:47:21.855Z,21.00
2023-04-26T07:48:21.836Z,22.00
2023-04-26T07:49:21.821Z,31.00
2023-04-26T07:50:21.818Z,25.00
2023-04-26T07:51:21.815Z,12.00
2023-04-26T07:52:21.793Z,17.00
2023-04-26T07:53:21.775Z,23.00
2023-04-26T07:54:21.769Z,18.00
2023-04-26T07:55:21.775Z,20.00
2023-04-26T07:56:21.751Z,24.00
2023-04-26T07:57:21.747Z,19.00
2023-04-26T07:58:21.761Z,50.00
2023-04-26T07:59:21.715Z,28.00
2023-04-26T08:00:21.699Z,29.00
2023-04-26T08:01:21.712Z,110.00
2023-04-26T08:02:29.665Z,63.00
2023-04-26T08:03:22.827Z,48.00
2023-04-26T08:04:21.784Z,46.00
2023-04-26T08:05:21.807Z,25.00
2023-04-26T08:06:21.741Z,31.00
2023-04-26T08:07:21.639Z,27.00
2023-04-26T08:08:21.629Z,138.00
2023-04-26T08:09:21.608Z,26.00
2023-04-26T08:10:21.605Z,37.00
2023-04-26T08:11:21.616Z,25.00
2023-04-26T08:12:21.598Z,35.00
2023-04-26T08:13:21.592Z,47.00
2023-04-26T08:14:21.556Z,117.00
2023-04-26T08:15:21.569Z,131.00
2023-04-26T08:16:21.559Z,39.00
2023-04-26T08:17:21.540Z,27.00
2023-04-26T08:18:21.512Z,30.00
2023-04-26T08:19:21.543Z,69.00
2023-04-26T08:20:21.492Z,141.00
2023-04-26T08:21:21.484Z,47.00
2023-04-26T08:22:21.481Z,33.00
2023-04-26T08:23:21.461Z,27.00
2023-04-26T08:24:21.466Z,32.00
2023-04-26T08:25:21.443Z,39.00
2023-04-26T08:26:21.432Z,35.00
2023-04-26T08:27:21.465Z,29.00
2023-04-26T08:28:21.413Z,27.00
2023-04-26T08:29:21.458Z,32.00
2023-04-26T08:30:21.392Z,33.00
2023-04-26T08:31:21.402Z,33.00
2023-04-26T08:32:21.461Z,112.00
2023-04-26T08:33:21.351Z,63.00
2023-04-26T08:34:21.357Z,40.00
2023-04-26T08:35:21.331Z,43.00
2023-04-26T08:36:21.342Z,67.00
2023-04-26T08:37:21.327Z,233.00
2023-04-26T08:38:21.308Z,45.00
2023-04-26T08:39:21.304Z,253.00
2023-04-26T08:40:21.286Z,72.00
2023-04-26T08:41:21.305Z,50.00
2023-04-26T08:42:21.295Z,36.00
2023-04-26T08:43:21.256Z,27.00
2023-04-26T08:44:21.249Z,28.00
2023-04-26T08:45:21.225Z,23.00
2023-04-26T08:46:21.319Z,20.00
2023-04-26T08:47:21.226Z,24.00
2023-04-26T08:48:21.209Z,20.00
2023-04-26T08:49:21.189Z,17.00
2023-04-26T08:50:21.204Z,16.00
2023-04-26T08:51:21.178Z,18.00
2023-04-26T08:52:21.174Z,20.00
2023-04-26T08:53:21.161Z,25.00
2023-04-26T08:54:21.151Z,23.00
2023-04-26T08:55:21.131Z,21.00
2023-04-26T08:56:21.123Z,23.00
2023-04-26T08:57:21.124Z,22.00
2023-04-26T08:58:21.230Z,27.00
2023-04-26T08:59:21.081Z,32.00
2023-04-26T09:00:21.661Z,37.00
2023-04-26T09:01:21.113Z,40.00
2023-04-26T09:02:21.152Z,40.00
2023-04-26T09:03:21.154Z,35.00
2023-04-26T09:04:21.275Z,36.00
2023-04-26T09:05:21.020Z,118.00
2023-04-26T09:06:21.021Z,159.00
2023-04-26T09:07:21.017Z,58.00
2023-04-26T09:08:20.997Z,56.00
2023-04-26T09:09:20.989Z,50.00
2023-04-26T09:10:21.162Z,46.00
2023-04-26T09:11:20.969Z,42.00
2023-04-26T09:12:20.973Z,46.00
2023-04-26T09:13:20.935Z,36.00
2023-04-26T09:14:20.925Z,37.00
2023-04-26T09:15:20.920Z,37.00
2023-04-26T09:16:20.990Z,33.00
2023-04-26T09:17:21.063Z,32.00
2023-04-26T09:18:20.887Z,29.00
2023-04-26T09:19:20.879Z,28.00
2023-04-26T09:20:20.965Z,26.00
2023-04-26T09:21:20.852Z,24.00
2023-04-26T09:22:20.864Z,26.00
2023-04-26T09:23:20.828Z,27.00
2023-04-26T09:24:20.826Z,28.00
2023-04-26T09:25:21.300Z,30.00
2023-04-26T09:26:20.797Z,34.00
2023-04-26T09:27:20.792Z,35.00
2023-04-26T09:28:20.810Z,32.00
2023-04-26T09:29:20.774Z,31.00
2023-04-26T09:30:20.766Z,34.00
2023-04-26T09:31:20.773Z,32.00
2023-04-26T09:32:20.751Z,36.00
2023-04-26T09:33:20.791Z,36.00
2023-04-26T09:34:20.716Z,34.00
2023-04-26T09:35:20.759Z,39.00
2023-04-26T09:36:20.701Z,37.00
2023-04-26T09:37:20.702Z,43.00
2023-04-26T09:38:20.672Z,43.00
2023-04-26T09:39:20.665Z,47.00
2023-04-26T09:40:20.656Z,51.00
2023-04-26T09:41:20.638Z,48.00
2023-04-26T09:42:20.666Z,62.00
2023-04-26T09:43:20.624Z,61.00
2023-04-26T09:44:20.618Z,49.00
2023-04-26T09:45:20.594Z,61.00
2023-04-26T09:46:20.636Z,62.00
2023-04-26T09:47:20.584Z,115.00
2023-04-26T09:48:20.563Z,246.00
2023-04-26T09:49:20.552Z,83.00
2023-04-26T09:50:20.542Z,82.00
2023-04-26T09:51:20.540Z,73.00
2023-04-26T09:52:20.560Z,63.00
2023-04-26T09:53:20.518Z,73.00
2023-04-26T09:54:20.500Z,84.00
2023-04-26T09:55:33.602Z,73.00
2023-04-26T09:56:21.473Z,77.00
2023-04-26T09:57:20.484Z,109.00
2023-04-26T09:58:20.463Z,74.00
2023-04-26T09:59:20.448Z,73.00
2023-04-26T10:00:20.433Z,67.00
2023-04-26T10:01:20.505Z,57.00
2023-04-26T10:02:20.445Z,52.00
2023-04-26T10:03:20.473Z,48.00
2023-04-26T10:04:20.539Z,46.00
2023-04-26T10:05:20.380Z,47.00
2023-04-26T10:06:20.441Z,47.00
2023-04-26T10:07:20.362Z,52.00
2023-04-26T10:08:20.362Z,51.00
2023-04-26T10:09:20.343Z,45.00
2023-04-26T10:10:20.334Z,45.00
2023-04-26T10:11:20.318Z,39.00
2023-04-26T10:12:20.309Z,38.00
2023-04-26T10:13:20.320Z,51.00
2023-04-26T10:14:20.291Z,58.00
2023-04-26T10:15:20.284Z,58.00
2023-04-26T10:16:20.278Z,52.00
2023-04-26T10:17:20.269Z,46.00
2023-04-26T10:18:20.251Z,37.00
2023-04-26T10:19:20.239Z,36.00
2023-04-26T10:20:20.228Z,35.00
2023-04-26T10:21:20.224Z,34.00
2023-04-26T10:22:20.202Z,36.00
2023-04-26T10:23:20.203Z,34.00
2023-04-26T10:24:20.180Z,34.00
2023-04-26T10:25:20.178Z,33.00
2023-04-26T10:26:20.161Z,29.00
2023-04-26T10:27:20.151Z,31.00
2023-04-26T10:28:20.154Z,31.00
2023-04-26T10:29:20.137Z,34.00
2023-04-26T10:30:20.114Z,41.00
2023-04-26T10:31:20.145Z,56.00
2023-04-26T10:32:20.098Z,103.00
2023-04-26T10:33:20.128Z,235.00
2023-04-26T10:34:20.070Z,241.00
2023-04-26T10:35:20.080Z,486.00
2023-04-26T10:36:20.053Z,255.00
2023-04-26T10:37:20.045Z,125.00
2023-04-26T10:38:20.049Z,57.00
2023-04-26T10:39:20.358Z,45.00
2023-04-26T10:40:20.014Z,33.00
2023-04-26T10:41:20.009Z,33.00
2023-04-26T10:42:20.964Z,29.00
2023-04-26T10:43:20.002Z,28.00
2023-04-26T10:44:19.974Z,30.00
2023-04-26T10:45:19.967Z,32.00
2023-04-26T10:46:20.022Z,24.00
2023-04-26T10:47:20.014Z,25.00
2023-04-26T10:48:20.060Z,24.00
2023-04-26T10:49:19.930Z,26.00
2023-04-26T10:50:19.911Z,23.00
2023-04-26T10:51:19.899Z,23.00
2023-04-26T10:52:19.918Z,24.00
2023-04-26T10:53:19.915Z,29.00
2023-04-26T10:54:19.876Z,24.00
2023-04-26T10:55:19.857Z,22.00
2023-04-26T10:56:19.847Z,26.00
2023-04-26T10:57:19.847Z,33.00
2023-04-26T10:58:19.831Z,36.00
2023-04-26T10:59:36.092Z,40.00
2023-04-26T11:00:20.830Z,43.00
2023-04-26T11:01:19.878Z,41.00
2023-04-26T11:02:19.815Z,48.00
2023-04-26T11:03:19.940Z,50.00
2023-04-26T11:04:19.880Z,47.00
2023-04-26T11:05:19.752Z,52.00
2023-04-26T11:06:19.745Z,71.00
2023-04-26T11:07:19.744Z,49.00
2023-04-26T11:08:19.743Z,45.00
2023-04-26T11:09:19.710Z,49.00
2023-04-26T11:10:19.702Z,49.00
2023-04-26T11:11:19.682Z,49.00
2023-04-26T11:12:19.682Z,47.00
2023-04-26T11:13:19.691Z,44.00
2023-04-26T11:14:19.667Z,57.00
2023-04-26T11:15:19.647Z,43.00
2023-04-26T11:16:19.658Z,89.00
2023-04-26T11:17:19.651Z,75.00
2023-04-26T11:18:19.610Z,89.00
2023-04-26T11:19:19.652Z,110.00
2023-04-26T11:20:19.600Z,107.00
2023-04-26T11:21:19.579Z,78.00
2023-04-26T11:22:19.573Z,77.00
2023-04-26T11:23:19.564Z,61.00
2023-04-26T11:24:19.568Z,50.00
2023-04-26T11:25:19.542Z,43.00
2023-04-26T11:26:19.522Z,34.00
2023-04-26T11:27:19.525Z,25.00
2023-04-26T11:28:22.377Z,24.00
2023-04-26T11:29:19.518Z,25.00
2023-04-26T11:30:19.485Z,28.00
2023-04-26T11:31:19.601Z,27.00
2023-04-26T11:32:19.475Z,27.00
2023-04-26T11:33:19.464Z,23.00
2023-04-26T11:34:19.455Z,19.00
2023-04-26T11:35:19.437Z,71.00
2023-04-26T11:36:19.420Z,31.00
2023-04-26T11:37:19.426Z,30.00
2023-04-26T11:38:19.392Z,32.00
2023-04-26T11:39:19.409Z,34.00
2023-04-26T11:40:19.401Z,34.00
2023-04-26T11:41:19.368Z,27.00
2023-04-26T11:42:19.365Z,21.00
2023-04-26T11:43:19.373Z,17.00
2023-04-26T11:44:19.358Z,21.00
2023-04-26T11:45:19.329Z,20.00
2023-04-26T11:46:19.355Z,16.00
2023-04-26T11:47:19.316Z,14.00
2023-04-26T11:48:19.333Z,15.00
2023-04-26T11:49:19.309Z,17.00
2023-04-26T11:50:19.276Z,18.00
2023-04-26T11:51:19.265Z,24.00
2023-04-26T11:52:19.247Z,22.00
2023-04-26T11:53:19.251Z,21.00
2023-04-26T11:54:19.241Z,24.00
2023-04-26T11:55:19.232Z,27.00
2023-04-26T11:56:19.210Z,26.00
2023-04-26T11:57:19.203Z,23.00
2023-04-26T11:58:19.190Z,25.00
2023-04-26T11:59:19.200Z,26.00
2023-04-26T12:00:19.176Z,25.00
2023-04-26T12:01:19.170Z,29.00
2023-04-26T12:02:19.252Z,32.00
2023-04-26T12:03:19.316Z,141.00
2023-04-26T12:04:19.308Z,55.00
2023-04-26T12:05:19.135Z,64.00
2023-04-26T12:06:19.118Z,54.00
2023-04-26T12:07:19.111Z,49.00
2023-04-26T12:08:19.091Z,42.00
2023-04-26T12:09:19.091Z,41.00
2023-04-26T12:10:19.069Z,47.00
2023-04-26T12:11:19.057Z,51.00
2023-04-26T12:12:19.044Z,47.00
2023-04-26T12:13:19.055Z,50.00
2023-04-26T12:14:19.039Z,43.00
2023-04-26T12:15:19.013Z,40.00
2023-04-26T12:16:26.408Z,31.00
2023-04-26T12:17:20.071Z,30.00
2023-04-26T12:18:19.019Z,26.00
2023-04-26T12:19:18.985Z,26.00
2023-04-26T12:20:18.961Z,32.00
2023-04-26T12:21:18.956Z,33.00
2023-04-26T12:22:18.934Z,37.00
2023-04-26T12:23:18.964Z,37.00
2023-04-26T12:24:18.921Z,34.00
2023-04-26T12:25:18.904Z,38.00
2023-04-26T12:26:18.890Z,42.00
2023-04-26T12:27:18.889Z,40.00
2023-04-26T12:28:18.883Z,35.00
2023-04-26T12:29:18.869Z,35.00
2023-04-26T12:30:18.846Z,33.00
2023-04-26T12:31:18.880Z,29.00
2023-04-26T12:32:20.767Z,27.00
2023-04-26T12:33:18.875Z,27.00
2023-04-26T12:34:18.808Z,31.00
2023-04-26T12:35:18.800Z,25.00
2023-04-26T12:36:18.786Z,34.00
2023-04-26T12:37:18.783Z,42.00
2023-04-26T12:38:18.765Z,46.00
2023-04-26T12:39:18.782Z,65.00
2023-04-26T12:40:18.742Z,59.00
2023-04-26T12:41:18.794Z,61.00
2023-04-26T12:42:18.764Z,62.00
2023-04-26T12:43:18.717Z,61.00
2023-04-26T12:44:21.236Z,68.00
2023-04-26T12:45:18.751Z,67.00
2023-04-26T12:46:18.719Z,69.00
2023-04-26T12:47:18.697Z,68.00
2023-04-26T12:48:18.709Z,58.00
2023-04-26T12:49:18.674Z,41.00
2023-04-26T12:50:18.907Z,63.00
2023-04-26T12:51:18.639Z,219.00
2023-04-26T12:52:18.623Z,124.00
2023-04-26T12:53:18.640Z,244.00
2023-04-26T12:54:18.615Z,187.00
2023-04-26T12:55:18.601Z,141.00
2023-04-26T12:56:18.607Z,111.00
2023-04-26T12:57:18.572Z,98.00
2023-04-26T12:58:18.555Z,88.00
2023-04-26T12:59:18.558Z,80.00
2023-04-26T13:00:18.545Z,75.00
2023-04-26T13:01:18.583Z,61.00
2023-04-26T13:02:18.581Z,54.00
2023-04-26T13:03:18.701Z,47.00